Bushes, Louisiana
Current Conditions -  °F | °C
As of 11:53 AM on Thursday 30 Oct 2014 (Local Time) from KMLU Reporting Station
Clear Clear  
Wind Chill: 68°   Ceiling: Unl
Heat Index: 68°   Visibility: 10mi
Dew Point: 45°   Wind: 5mph
Humidity: 43%   Direction: 100°E
Pressure: 30.17"   Gusts: NA
Location:  32.1434°N, 91.7026°W
Report Text: KMLU 301653Z 10004KT 10SM CLR 20/07 A3017 RMK AO2 SLP215 T02000072
Loading
Personal Weather Stations






























Interactive Weather Map
Tropical Storm Tracking
New forecast layout! Learn more

10-Day Weather Forecast

Advertisements
Track Severe Weather on mobile